Time;durP1;ratioP1;P1;durP2;ratioP2;P2;SDS_P1;SDS_P2;PMS_P1;PMS_P2;Temp;Humidity;BMP_temperature;BMP_pressure;BME280_temperature;BME280_humidity;BME280_pressure;Samples;Min_cycle;Max_cycle;Signal;HPM_P1;HPM_P2
2023/10/24 00:01:01;;;;;;;10.67;6.40;;;14.10;99.90;;;;;;5015888;28;20190;-72
2023/10/24 00:03:26;;;;;;;8.30;5.10;;;14.20;99.90;;;;;;5015764;28;20414;-72
2023/10/24 00:05:52;;;;;;;5.30;4.63;;;14.30;99.90;;;;;;5033470;28;20174;-72
2023/10/24 00:08:18;;;;;;;5.83;5.30;;;14.40;99.90;;;;;;5016032;28;20223;-72
2023/10/24 00:10:43;;;;;;;6.50;5.17;;;14.50;99.90;;;;;;4999341;28;20449;-71
2023/10/24 00:13:09;;;;;;;7.97;5.60;;;14.50;99.90;;;;;;5015768;28;20175;-72
2023/10/24 00:15:35;;;;;;;8.00;5.90;;;14.60;99.90;;;;;;5015867;28;20291;-72
2023/10/24 00:18:01;;;;;;;6.47;5.80;;;14.60;99.90;;;;;;5015945;28;20260;-72
2023/10/24 00:20:26;;;;;;;5.40;4.90;;;14.60;99.90;;;;;;5015732;28;20233;-71
2023/10/24 00:22:52;;;;;;;5.90;5.40;;;14.60;99.90;;;;;;5015540;28;20251;-71
2023/10/24 00:25:17;;;;;;;5.50;4.63;;;14.50;99.90;;;;;;5002128;28;20182;-71
2023/10/24 00:27:44;;;;;;;5.50;4.90;;;14.50;99.90;;;;;;5015505;28;20317;-72
2023/10/24 00:30:10;;;;;;;6.33;5.30;;;14.50;99.90;;;;;;5015426;28;20198;-71
2023/10/24 00:32:36;;;;;;;5.50;5.03;;;14.50;99.90;;;;;;5015131;28;20418;-72
2023/10/24 00:35:02;;;;;;;4.50;4.10;;;14.50;99.90;;;;;;5015262;28;20172;-72
2023/10/24 00:37:28;;;;;;;5.20;4.70;;;14.50;99.90;;;;;;5033348;28;20174;-72
2023/10/24 00:39:53;;;;;;;5.20;4.70;;;14.50;99.90;;;;;;5033210;28;20426;-72
2023/10/24 00:42:19;;;;;;;5.40;4.00;;;14.50;99.90;;;;;;5015316;28;20180;-71
2023/10/24 00:44:45;;;;;;;4.53;4.10;;;14.50;99.90;;;;;;5015307;28;20168;-72
2023/10/24 00:47:10;;;;;;;5.67;5.17;;;14.60;99.90;;;;;;5015233;28;20666;-71
2023/10/24 00:49:37;;;;;;;6.50;4.80;;;14.40;99.90;;;;;;5015268;28;20558;-72
2023/10/24 00:52:03;;;;;;;5.50;5.00;;;14.30;99.90;;;;;;5015252;28;20170;-72
2023/10/24 00:54:33;;;;;;;5.30;4.60;;;14.30;99.90;;;;;;5032881;28;20405;-72
2023/10/24 00:56:59;;;;;;;5.40;4.90;;;14.40;99.90;;;;;;5032927;28;20805;-71
2023/10/24 00:59:26;;;;;;;8.80;5.30;;;14.40;99.90;;;;;;5015324;28;20473;-72
2023/10/24 01:01:53;;;;;;;6.10;5.50;;;14.40;99.90;;;;;;5033068;28;20783;-72
2023/10/24 01:04:21;;;;;;;7.87;6.10;;;14.40;99.90;;;;;;5015046;28;20481;-72
2023/10/24 01:06:47;;;;;;;6.10;5.50;;;14.30;99.90;;;;;;5032675;28;20893;-72
2023/10/24 01:09:12;;;;;;;5.80;5.20;;;14.30;99.90;;;;;;5014807;28;20424;-72
2023/10/24 01:11:38;;;;;;;6.60;5.20;;;14.40;99.90;;;;;;5032974;28;20539;-72
2023/10/24 01:14:04;;;;;;;7.20;6.30;;;14.40;99.90;;;;;;5032664;28;20173;-72
2023/10/24 01:16:33;;;;;;;7.93;7.07;;;14.50;99.90;;;;;;5032556;28;20212;-72
2023/10/24 01:18:58;;;;;;;6.77;6.10;;;14.50;99.90;;;;;;5032649;28;20186;-72
2023/10/24 01:21:24;;;;;;;10.03;7.03;;;14.50;99.90;;;;;;5032404;28;20402;-72
2023/10/24 01:23:51;;;;;;;7.20;6.50;;;14.50;99.90;;;;;;5032832;28;20167;-72
2023/10/24 01:26:17;;;;;;;7.27;6.40;;;14.40;99.90;;;;;;5032579;28;20259;-72
2023/10/24 01:28:43;;;;;;;10.27;6.10;;;14.40;99.90;;;;;;5032583;28;20828;-72
2023/10/24 01:31:08;;;;;;;6.40;5.80;;;14.40;99.90;;;;;;5032642;28;20457;-72
2023/10/24 01:33:34;;;;;;;6.03;5.30;;;14.40;99.90;;;;;;5032796;28;20743;-72
2023/10/24 01:35:59;;;;;;;9.03;5.50;;;14.40;99.90;;;;;;5032787;28;20201;-72
2023/10/24 01:38:25;;;;;;;5.57;4.63;;;14.40;99.90;;;;;;5032445;28;20171;-72
2023/10/24 01:40:50;;;;;;;5.97;5.40;;;14.40;99.90;;;;;;5032675;28;20261;-72
2023/10/24 01:43:16;;;;;;;5.70;5.07;;;14.40;99.90;;;;;;5032688;28;20592;-72
2023/10/24 01:45:41;;;;;;;5.20;4.70;;;14.40;99.90;;;;;;5032361;28;20198;-72
2023/10/24 01:48:07;;;;;;;5.03;4.53;;;14.40;99.90;;;;;;5032411;28;20176;-72
2023/10/24 01:50:33;;;;;;;5.17;4.70;;;14.40;99.90;;;;;;5032597;28;20190;-72
2023/10/24 01:52:58;;;;;;;6.50;4.93;;;14.20;99.90;;;;;;4998526;28;20273;-72
2023/10/24 01:55:24;;;;;;;5.10;4.70;;;14.30;99.90;;;;;;5014346;28;20276;-72
2023/10/24 01:57:50;;;;;;;6.07;5.10;;;14.30;99.90;;;;;;5014470;28;20172;-72
2023/10/24 02:00:16;;;;;;;5.40;4.90;;;14.20;99.90;;;;;;5017252;28;20673;-71
2023/10/24 02:02:42;;;;;;;5.90;4.80;;;14.30;99.90;;;;;;5018169;28;20779;-72
2023/10/24 02:05:08;;;;;;;4.87;4.33;;;14.20;99.90;;;;;;5018038;28;20427;-72
2023/10/24 02:07:34;;;;;;;5.90;4.60;;;14.30;99.90;;;;;;4998504;28;20180;-72
2023/10/24 02:09:59;;;;;;;5.57;4.97;;;14.20;99.90;;;;;;4998857;28;20824;-72
2023/10/24 02:12:25;;;;;;;4.90;4.50;;;14.20;99.90;;;;;;4998453;28;20187;-71
2023/10/24 02:14:54;;;;;;;4.90;4.40;;;14.20;99.90;;;;;;5015891;28;20649;-71
2023/10/24 02:17:19;;;;;;;4.90;4.50;;;14.20;99.90;;;;;;4999411;28;20182;-71
2023/10/24 02:19:45;;;;;;;5.50;5.00;;;14.10;99.90;;;;;;5017734;28;20436;-72
2023/10/24 02:22:10;;;;;;;5.30;4.80;;;14.10;99.90;;;;;;5017762;28;20190;-72
2023/10/24 02:24:36;;;;;;;4.97;4.47;;;14.10;99.90;;;;;;5017818;28;20568;-72
2023/10/24 02:27:01;;;;;;;5.07;4.63;;;14.10;99.90;;;;;;5017221;28;20207;-73
2023/10/24 02:29:27;;;;;;;4.77;4.30;;;14.20;99.90;;;;;;5017406;28;20190;-72
2023/10/24 02:31:53;;;;;;;5.73;5.17;;;14.20;99.90;;;;;;5017634;28;20171;-71
2023/10/24 02:34:19;;;;;;;5.03;4.47;;;14.20;99.90;;;;;;5011028;28;20178;-72
2023/10/24 02:36:45;;;;;;;5.23;4.73;;;14.10;99.90;;;;;;5010313;28;20226;-72
2023/10/24 02:39:10;;;;;;;5.23;4.73;;;14.20;99.90;;;;;;5017509;28;20967;-72
2023/10/24 02:41:36;;;;;;;5.13;4.47;;;14.30;99.90;;;;;;5017447;28;20553;-72
2023/10/24 02:44:01;;;;;;;5.60;5.00;;;14.20;99.90;;;;;;5017353;28;20199;-72
2023/10/24 02:46:27;;;;;;;4.77;4.00;;;14.20;99.90;;;;;;5017186;28;20178;-72
2023/10/24 02:48:52;;;;;;;4.50;4.10;;;14.20;99.90;;;;;;5017329;28;20172;-72
2023/10/24 02:51:19;;;;;;;4.63;4.10;;;14.20;99.90;;;;;;5017249;28;20237;-72
2023/10/24 02:53:44;;;;;;;5.27;4.70;;;14.30;99.90;;;;;;5017248;28;20231;-72
2023/10/24 02:56:10;;;;;;;4.80;4.40;;;14.20;99.90;;;;;;5016995;28;20969;-72
2023/10/24 02:58:35;;;;;;;5.90;4.37;;;14.10;99.90;;;;;;5017148;28;20170;-72
2023/10/24 03:01:05;;;;;;;4.40;4.00;;;14.20;99.90;;;;;;5016959;28;20193;-72
2023/10/24 03:03:31;;;;;;;6.20;4.67;;;14.20;99.90;;;;;;5016995;28;20664;-71
2023/10/24 03:05:57;;;;;;;4.97;4.00;;;14.30;99.90;;;;;;5016849;28;20418;-72
2023/10/24 03:08:23;;;;;;;5.37;4.30;;;14.40;99.90;;;;;;5034908;28;20408;-72
2023/10/24 03:10:48;;;;;;;6.63;5.03;;;14.30;99.90;;;;;;5033414;28;20254;-72
2023/10/24 03:13:14;;;;;;;5.03;4.30;;;14.40;99.90;;;;;;5034836;28;20667;-72
2023/10/24 03:15:41;;;;;;;5.17;4.47;;;14.40;99.90;;;;;;5016844;28;20255;-72
2023/10/24 03:18:07;;;;;;;4.47;4.00;;;14.40;99.90;;;;;;5017124;28;20170;-72
2023/10/24 03:20:32;;;;;;;4.67;4.20;;;14.40;99.90;;;;;;5034514;28;20432;-72
2023/10/24 03:22:58;;;;;;;4.60;4.17;;;14.40;99.90;;;;;;5017473;28;20474;-72
2023/10/24 03:25:27;;;;;;;4.97;4.03;;;14.40;99.90;;;;;;5018118;28;20210;-72
2023/10/24 03:27:53;;;;;;;7.03;4.23;;;14.50;99.90;;;;;;5002749;28;20248;-72
2023/10/24 03:30:22;;;;;;;7.30;4.20;;;14.40;99.90;;;;;;5034911;28;20437;-72
2023/10/24 03:32:48;;;;;;;4.03;3.60;;;14.30;99.90;;;;;;5036463;28;20415;-72
2023/10/24 03:35:14;;;;;;;5.30;3.73;;;14.40;99.90;;;;;;5019621;28;20460;-72
2023/10/24 03:37:41;;;;;;;4.70;4.20;;;14.50;99.90;;;;;;5020693;28;20167;-72
2023/10/24 03:40:08;;;;;;;4.63;3.67;;;14.50;99.90;;;;;;5016957;28;20508;-72
2023/10/24 03:42:34;;;;;;;5.03;4.20;;;14.50;99.90;;;;;;5016119;28;20916;-71
2023/10/24 03:44:59;;;;;;;4.43;3.50;;;14.40;99.90;;;;;;5016213;28;20440;-72
2023/10/24 03:47:25;;;;;;;4.87;3.70;;;14.30;99.90;;;;;;5016105;28;20174;-71
2023/10/24 03:49:50;;;;;;;5.50;3.43;;;14.30;99.90;;;;;;5016108;28;20189;-72
2023/10/24 03:52:16;;;;;;;5.20;3.87;;;14.30;99.90;;;;;;5016082;28;20193;-72
2023/10/24 03:54:42;;;;;;;5.03;3.43;;;14.30;99.90;;;;;;5016012;28;20166;-72
2023/10/24 03:57:07;;;;;;;3.17;2.80;;;14.40;99.90;;;;;;5015864;28;20194;-72
2023/10/24 03:59:33;;;;;;;8.93;3.70;;;14.30;99.90;;;;;;5015827;28;20221;-72
2023/10/24 04:01:58;;;;;;;6.07;3.57;;;14.30;99.90;;;;;;5015861;28;20213;-72
2023/10/24 04:04:24;;;;;;;4.90;3.53;;;14.30;99.90;;;;;;5016941;28;20172;-72
2023/10/24 04:06:51;;;;;;;5.87;3.40;;;14.30;99.90;;;;;;5015679;28;20550;-71
2023/10/24 04:09:17;;;;;;;7.30;3.07;;;14.20;99.90;;;;;;5015493;28;20226;-72
2023/10/24 04:11:42;;;;;;;4.83;3.10;;;14.10;99.90;;;;;;5015814;28;20897;-72
2023/10/24 04:14:08;;;;;;;6.90;3.20;;;14.20;99.90;;;;;;5015542;28;20171;-72
2023/10/24 04:16:35;;;;;;;4.30;3.00;;;14.30;99.90;;;;;;5015366;28;20448;-72
2023/10/24 04:19:00;;;;;;;3.40;3.10;;;14.30;99.90;;;;;;5015389;28;20261;-71
2023/10/24 04:21:26;;;;;;;5.77;4.00;;;14.00;99.90;;;;;;5015548;28;20546;-72
2023/10/24 04:23:52;;;;;;;4.73;3.50;;;14.00;99.90;;;;;;5015192;28;20174;-72
2023/10/24 04:26:17;;;;;;;5.50;5.00;;;14.00;99.90;;;;;;5015355;28;20724;-72
2023/10/24 04:28:43;;;;;;;6.97;4.37;;;14.00;99.90;;;;;;5015361;28;20226;-70
2023/10/24 04:31:08;;;;;;;6.47;4.80;;;14.20;99.90;;;;;;5015263;28;20198;-72
2023/10/24 04:33:34;;;;;;;9.20;4.47;;;14.30;99.90;;;;;;5032583;28;20176;-72
2023/10/24 04:36:00;;;;;;;5.37;3.93;;;14.30;99.90;;;;;;5014866;28;20190;-72
2023/10/24 04:38:25;;;;;;;6.40;4.03;;;14.30;99.90;;;;;;5009290;28;20650;-72
2023/10/24 04:40:51;;;;;;;6.30;3.83;;;14.40;99.90;;;;;;5021516;28;20181;-72
2023/10/24 04:43:17;;;;;;;6.67;3.90;;;14.30;99.90;;;;;;4995519;28;20173;-72
2023/10/24 04:45:43;;;;;;;6.00;3.80;;;14.30;99.90;;;;;;4997816;28;20182;-72
2023/10/24 04:48:09;;;;;;;5.47;3.67;;;14.30;99.90;;;;;;5015035;28;20431;-72
2023/10/24 04:50:38;;;;;;;5.30;4.33;;;14.30;99.90;;;;;;5014973;28;20616;-71
2023/10/24 04:53:05;;;;;;;4.93;4.10;;;14.30;99.90;;;;;;5015151;28;20184;-72
2023/10/24 04:55:31;;;;;;;4.70;3.27;;;14.40;99.90;;;;;;5015203;28;20457;-71
2023/10/24 04:57:56;;;;;;;4.93;3.30;;;14.40;99.90;;;;;;4998680;28;20780;-71
2023/10/24 05:00:22;;;;;;;4.57;4.17;;;14.50;99.90;;;;;;5014972;28;20201;-72
2023/10/24 05:02:47;;;;;;;7.90;4.50;;;14.50;99.90;;;;;;5009495;28;20571;-71
2023/10/24 05:05:13;;;;;;;7.50;5.33;;;14.50;99.90;;;;;;5013005;28;20178;-71
2023/10/24 05:07:39;;;;;;;9.57;4.83;;;14.50;99.90;;;;;;5013027;28;20283;-71
2023/10/24 05:10:05;;;;;;;3.70;3.40;;;14.40;99.90;;;;;;5014792;28;20222;-72
2023/10/24 05:12:32;;;;;;;4.27;3.87;;;14.30;99.90;;;;;;5014722;28;20183;-72
2023/10/24 05:14:57;;;;;;;5.47;3.70;;;14.30;99.90;;;;;;5032541;28;20414;-71
2023/10/24 05:17:23;;;;;;;5.90;3.80;;;14.30;99.90;;;;;;5032615;28;20835;-72
2023/10/24 05:19:48;;;;;;;6.40;4.10;;;14.30;99.90;;;;;;5006304;28;20224;-72
2023/10/24 05:22:14;;;;;;;7.13;3.47;;;14.30;99.90;;;;;;5012798;28;20552;-71
2023/10/24 05:24:40;;;;;;;4.80;3.73;;;14.40;99.90;;;;;;4995006;28;20227;-71
2023/10/24 05:27:06;;;;;;;4.60;4.10;;;14.40;99.90;;;;;;5004726;28;20502;-72
2023/10/24 05:29:35;;;;;;;5.13;4.10;;;14.50;99.90;;;;;;5005203;28;20210;-74
2023/10/24 05:32:01;;;;;;;6.33;4.37;;;14.50;99.90;;;;;;5008969;28;20436;-71
2023/10/24 05:34:30;;;;;;;5.20;4.70;;;14.50;99.90;;;;;;5015958;28;20412;-71
2023/10/24 05:36:56;;;;;;;5.43;4.50;;;14.50;99.90;;;;;;5002681;28;20245;-71
2023/10/24 05:39:24;;;;;;;8.03;4.43;;;14.50;99.90;;;;;;5018595;28;20815;-71
2023/10/24 05:41:50;;;;;;;4.13;3.73;;;14.50;99.90;;;;;;5018462;28;20837;-71
2023/10/24 05:44:16;;;;;;;4.23;3.70;;;14.50;99.90;;;;;;5018511;28;20420;-71
2023/10/24 05:46:42;;;;;;;7.40;3.73;;;14.50;99.90;;;;;;5002091;28;20421;-71
2023/10/24 05:49:08;;;;;;;3.80;3.40;;;14.40;99.90;;;;;;5036252;28;20711;-71
2023/10/24 05:51:33;;;;;;;6.00;3.90;;;14.30;99.90;;;;;;5018715;28;20470;-71
2023/10/24 05:53:59;;;;;;;4.67;4.17;;;14.30;99.90;;;;;;5036019;28;20503;-71
2023/10/24 05:56:26;;;;;;;6.87;3.90;;;14.40;99.90;;;;;;5018049;28;20205;-72
2023/10/24 05:58:52;;;;;;;4.03;3.63;;;14.30;99.90;;;;;;5018123;28;20429;-71
2023/10/24 06:01:18;;;;;;;7.50;4.03;;;14.30;99.90;;;;;;5035912;28;20532;-71
2023/10/24 06:03:45;;;;;;;12.90;7.57;;;14.30;99.90;;;;;;5018050;28;20992;-71
2023/10/24 06:06:10;;;;;;;6.10;5.50;;;14.10;99.90;;;;;;5017949;28;20413;-71
2023/10/24 06:08:36;;;;;;;4.77;3.80;;;14.20;99.90;;;;;;5018000;28;20409;-71
2023/10/24 06:11:03;;;;;;;6.93;4.40;;;14.20;99.90;;;;;;5017838;28;20213;-71
2023/10/24 06:13:29;;;;;;;5.10;4.00;;;14.20;99.90;;;;;;5018101;28;20168;-71
2023/10/24 06:16:04;;;;;;;6.90;3.80;;;14.10;99.90;;;;;;5017739;28;20901;-71
2023/10/24 06:18:30;;;;;;;4.83;3.90;;;14.00;99.90;;;;;;5017907;28;20412;-71
2023/10/24 06:20:56;;;;;;;3.80;3.47;;;14.00;99.90;;;;;;5017733;28;20484;-71
2023/10/24 06:23:23;;;;;;;5.87;3.60;;;14.00;99.90;;;;;;5018009;28;20644;-71
2023/10/24 06:25:48;;;;;;;4.20;3.20;;;14.10;99.90;;;;;;5017726;28;20167;-72
2023/10/24 06:28:14;;;;;;;5.30;4.10;;;14.10;99.90;;;;;;5017603;28;20853;-71
2023/10/24 06:30:39;;;;;;;4.27;3.37;;;14.20;99.90;;;;;;5017215;28;20197;-71
2023/10/24 06:33:05;;;;;;;5.07;4.10;;;14.30;99.90;;;;;;5017679;28;20267;-72
2023/10/24 06:35:30;;;;;;;7.50;4.03;;;14.30;99.90;;;;;;5034908;28;20195;-73
2023/10/24 06:37:56;;;;;;;4.37;3.97;;;14.30;99.90;;;;;;5021478;28;20182;-72
2023/10/24 06:40:22;;;;;;;7.83;4.80;;;14.40;99.90;;;;;;5015493;28;20613;-73
2023/10/24 06:42:50;;;;;;;5.07;4.60;;;14.40;99.90;;;;;;4997986;28;20195;-72
2023/10/24 06:45:16;;;;;;;5.30;4.27;;;14.50;99.90;;;;;;4997465;28;20456;-73
2023/10/24 06:47:41;;;;;;;8.00;5.60;;;14.40;99.90;;;;;;5014449;28;20974;-72
2023/10/24 06:50:07;;;;;;;7.10;4.80;;;14.40;99.90;;;;;;5017178;28;20474;-72
2023/10/24 06:52:34;;;;;;;5.30;4.77;;;14.40;99.90;;;;;;5017142;28;20647;-72
2023/10/24 06:55:00;;;;;;;7.60;5.63;;;14.40;99.90;;;;;;5017183;28;20412;-72
2023/10/24 06:57:26;;;;;;;8.17;6.60;;;14.50;99.90;;;;;;5016995;28;20419;-72
2023/10/24 06:59:52;;;;;;;6.13;5.53;;;14.50;99.90;;;;;;5001068;28;20441;-71
2023/10/24 07:02:18;;;;;;;5.47;4.30;;;14.60;99.90;;;;;;5034939;28;20406;-72
2023/10/24 07:04:44;;;;;;;6.73;4.63;;;14.50;99.90;;;;;;5016830;28;20205;-72
2023/10/24 07:07:09;;;;;;;5.13;4.63;;;14.50;99.90;;;;;;5016797;28;20511;-72
2023/10/24 07:09:35;;;;;;;6.07;5.30;;;14.60;99.90;;;;;;5016665;28;20204;-72
2023/10/24 07:12:01;;;;;;;4.87;4.30;;;14.70;99.90;;;;;;5016922;28;20179;-73
2023/10/24 07:14:26;;;;;;;5.60;4.80;;;14.70;99.90;;;;;;5018063;28;20174;-72
2023/10/24 07:16:52;;;;;;;4.30;3.90;;;14.70;99.90;;;;;;5018931;28;20229;-72
2023/10/24 07:19:18;;;;;;;5.80;5.10;;;14.70;99.90;;;;;;5017528;28;20251;-72
2023/10/24 07:21:44;;;;;;;5.40;4.90;;;14.80;99.90;;;;;;5017268;28;20204;-72
2023/10/24 07:24:09;;;;;;;7.00;4.90;;;14.80;99.90;;;;;;5017138;28;20918;-73
2023/10/24 07:26:35;;;;;;;4.70;4.27;;;14.70;99.90;;;;;;5003194;28;20185;-72
2023/10/24 07:29:01;;;;;;;7.13;6.27;;;14.70;99.90;;;;;;5018754;28;20175;-72
2023/10/24 07:31:26;;;;;;;9.07;5.17;;;14.70;99.90;;;;;;5017746;28;20189;-72
2023/10/24 07:33:52;;;;;;;7.00;5.43;;;14.60;99.90;;;;;;5016819;28;20182;-72
2023/10/24 07:36:18;;;;;;;5.60;4.97;;;14.70;99.90;;;;;;5034194;28;20300;-73
2023/10/24 07:38:43;;;;;;;5.60;5.10;;;14.70;99.90;;;;;;5016294;28;20189;-73
2023/10/24 07:41:10;;;;;;;6.43;4.93;;;14.80;99.90;;;;;;5016116;28;20297;-72
2023/10/24 07:43:36;;;;;;;6.70;4.47;;;14.80;99.90;;;;;;5016294;28;20263;-72
2023/10/24 07:46:02;;;;;;;6.10;4.90;;;14.80;99.90;;;;;;5016179;28;20496;-72
2023/10/24 07:48:28;;;;;;;8.30;5.00;;;14.80;99.90;;;;;;5016159;28;20175;-72
2023/10/24 07:50:56;;;;;;;5.50;4.90;;;14.70;99.90;;;;;;5033598;28;20437;-72
2023/10/24 07:53:23;;;;;;;6.13;5.63;;;14.70;99.90;;;;;;5015937;28;20417;-72
2023/10/24 07:55:49;;;;;;;6.13;4.93;;;14.70;99.90;;;;;;5015848;28;20456;-72
2023/10/24 07:58:18;;;;;;;5.53;5.03;;;14.70;99.90;;;;;;5015318;28;20833;-72
2023/10/24 08:00:48;;;;;;;8.00;5.13;;;14.70;99.90;;;;;;5015926;28;20482;-72
2023/10/24 08:03:14;;;;;;;5.33;4.80;;;14.70;99.90;;;;;;5015937;28;20428;-72
2023/10/24 08:05:41;;;;;;;7.67;4.90;;;14.80;99.90;;;;;;5015989;28;20504;-72
2023/10/24 08:08:07;;;;;;;5.53;4.90;;;14.80;99.90;;;;;;5015768;28;20417;-73
2023/10/24 08:10:34;;;;;;;7.03;6.00;;;14.80;99.90;;;;;;5016185;28;20471;-72
2023/10/24 08:13:00;;;;;;;5.00;4.60;;;14.80;99.90;;;;;;5015709;28;20498;-72
2023/10/24 08:15:27;;;;;;;5.47;4.97;;;14.80;99.90;;;;;;5033300;28;20820;-72
2023/10/24 08:17:53;;;;;;;6.67;5.10;;;14.80;99.90;;;;;;5033246;28;20543;-72
2023/10/24 08:20:19;;;;;;;7.77;5.57;;;14.90;99.90;;;;;;5015298;28;20530;-72
2023/10/24 08:22:46;;;;;;;5.03;4.37;;;14.90;99.90;;;;;;5015446;28;20171;-72
2023/10/24 08:25:11;;;;;;;6.10;5.60;;;14.70;99.90;;;;;;5015364;28;20413;-72
2023/10/24 08:27:37;;;;;;;6.13;5.40;;;14.40;99.90;;;;;;5014971;28;20416;-72
2023/10/24 08:30:03;;;;;;;6.97;5.73;;;14.60;99.90;;;;;;5015249;28;20507;-72
2023/10/24 08:32:29;;;;;;;7.10;6.40;;;14.70;99.90;;;;;;5015226;28;20179;-72
2023/10/24 08:34:55;;;;;;;8.90;7.40;;;14.80;99.90;;;;;;5015260;28;20415;-72
2023/10/24 08:37:21;;;;;;;6.90;5.80;;;14.90;99.90;;;;;;5015150;28;20830;-72
2023/10/24 08:39:47;;;;;;;7.10;6.33;;;14.90;99.90;;;;;;5015138;28;20493;-72
2023/10/24 08:42:14;;;;;;;8.37;6.83;;;14.90;99.90;;;;;;5014827;28;20451;-71
2023/10/24 08:44:41;;;;;;;9.40;6.53;;;15.00;99.90;;;;;;5025389;28;20911;-71
2023/10/24 08:47:08;;;;;;;8.87;8.00;;;14.90;99.90;;;;;;5005372;28;20903;-71
2023/10/24 08:49:36;;;;;;;8.97;7.03;;;14.90;99.90;;;;;;4998773;28;20527;-71
2023/10/24 08:52:03;;;;;;;8.60;6.80;;;14.80;99.90;;;;;;5015018;28;20471;-72
2023/10/24 08:54:29;;;;;;;8.27;6.97;;;14.80;99.90;;;;;;5032729;28;20414;-72
2023/10/24 08:56:55;;;;;;;9.50;7.73;;;14.80;99.90;;;;;;5014970;28;20511;-72
2023/10/24 08:59:21;;;;;;;12.83;10.70;;;14.70;99.90;;;;;;5014901;28;20434;-72
2023/10/24 09:01:48;;;;;;;9.90;9.00;;;14.70;99.90;;;;;;5014779;28;20169;-72
2023/10/24 09:04:14;;;;;;;8.07;6.90;;;14.70;99.90;;;;;;5014164;28;20180;-72
2023/10/24 09:06:40;;;;;;;9.00;8.00;;;14.70;99.90;;;;;;5014842;28;20797;-72
2023/10/24 09:09:05;;;;;;;7.40;6.67;;;14.60;99.90;;;;;;5015373;28;20416;-72
2023/10/24 09:11:56;;;;;;;10.43;7.93;;;14.60;99.90;;;;;;5019105;28;20321;-71
2023/10/24 09:14:28;;;;;;;7.40;6.70;;;14.70;99.90;;;;;;5005615;28;20183;-72
2023/10/24 09:16:55;;;;;;;10.50;7.47;;;14.70;99.90;;;;;;5018927;28;20451;-72
2023/10/24 09:19:22;;;;;;;7.67;6.87;;;14.70;99.90;;;;;;5036462;28;20802;-72
2023/10/24 09:21:51;;;;;;;9.40;7.23;;;14.80;99.90;;;;;;5019263;28;20564;-71
2023/10/24 09:24:18;;;;;;;11.83;9.33;;;14.90;99.90;;;;;;5018797;28;20409;-71
2023/10/24 09:26:54;;;;;;;7.90;7.20;;;15.00;99.90;;;;;;5018674;28;20406;-71
2023/10/24 09:29:20;;;;;;;6.97;6.33;;;15.10;99.90;;;;;;5018570;28;20522;-72
2023/10/24 09:31:49;;;;;;;7.90;6.93;;;15.10;99.90;;;;;;5018717;28;20442;-71
2023/10/24 09:34:18;;;;;;;10.03;8.07;;;15.10;99.90;;;;;;5018568;28;20915;-71
2023/10/24 09:36:45;;;;;;;10.33;8.67;;;15.00;99.90;;;;;;5036450;28;20479;-71
2023/10/24 09:39:15;;;;;;;13.60;11.00;;;14.90;99.90;;;;;;5036229;28;20417;-72
2023/10/24 09:41:41;;;;;;;9.10;7.93;;;14.70;99.90;;;;;;5018438;28;20497;-71
2023/10/24 09:44:07;;;;;;;10.23;7.87;;;14.90;99.90;;;;;;5036233;28;20406;-71
2023/10/24 09:46:35;;;;;;;10.13;8.50;;;14.80;99.90;;;;;;5018357;28;20968;-71
2023/10/24 09:49:01;;;;;;;7.30;6.63;;;15.00;99.90;;;;;;5018318;28;20465;-72
2023/10/24 09:51:27;;;;;;;8.97;8.17;;;15.00;99.90;;;;;;5018810;28;20413;-71
2023/10/24 09:53:53;;;;;;;6.00;5.50;;;15.10;99.90;;;;;;5002037;28;20503;-71
2023/10/24 09:56:20;;;;;;;7.03;6.33;;;15.10;99.90;;;;;;5018021;28;20888;-72
2023/10/24 09:58:47;;;;;;;6.80;6.07;;;15.20;99.90;;;;;;5036208;28;20181;-71
2023/10/24 10:01:13;;;;;;;7.47;6.77;;;15.30;99.90;;;;;;5035824;28;20519;-71
2023/10/24 10:03:38;;;;;;;6.33;5.80;;;15.40;99.90;;;;;;5035940;28;20444;-72
2023/10/24 10:06:10;;;;;;;7.23;5.90;;;15.50;99.90;;;;;;5017994;28;20427;-72
2023/10/24 10:08:37;;;;;;;6.53;5.93;;;15.60;99.90;;;;;;5018009;28;20641;-72
2023/10/24 10:11:05;;;;;;;7.77;5.90;;;15.60;99.90;;;;;;5017771;28;20474;-71
2023/10/24 10:13:54;;;;;;;7.93;6.70;;;15.70;99.90;;;;;;4991423;28;20440;-71
2023/10/24 10:16:26;;;;;;;10.03;7.13;;;15.70;99.90;;;;;;5017750;28;20463;-72
2023/10/24 10:19:23;;;;;;;9.50;7.87;;;15.50;99.90;;;;;;5035861;28;20873;-72
2023/10/24 10:21:59;;;;;;;9.63;8.60;;;15.20;99.90;;;;;;5010182;28;20410;-71
2023/10/24 10:24:31;;;;;;;10.10;9.00;;;15.00;99.90;;;;;;5035438;28;20521;-71
2023/10/24 10:27:15;;;;;;;9.37;7.53;;;15.10;99.90;;;;;;5017292;28;20503;-71
2023/10/24 10:30:06;;;;;;;12.20;9.40;;;15.10;99.90;;;;;;5017624;28;20427;-71
2023/10/24 10:32:53;;;;;;;12.03;9.30;;;15.10;99.90;;;;;;5017736;28;20791;-71
2023/10/24 10:35:19;;;;;;;8.93;8.00;;;15.20;99.90;;;;;;5001148;28;20439;-71
2023/10/24 10:38:03;;;;;;;12.60;8.40;;;15.30;99.90;;;;;;5017396;28;20435;-71
2023/10/24 10:40:29;;;;;;;9.40;8.30;;;15.50;99.90;;;;;;5017309;28;20437;-71
2023/10/24 10:42:55;;;;;;;10.27;8.40;;;15.60;99.90;;;;;;5017494;28;20844;-72
2023/10/24 10:45:32;;;;;;;9.33;8.43;;;15.70;99.90;;;;;;5017006;28;20429;-72
2023/10/24 10:47:59;;;;;;;11.10;8.70;;;15.70;99.90;;;;;;5017195;28;20549;-71
2023/10/24 10:50:33;;;;;;;10.90;8.60;;;15.70;99.90;;;;;;5001905;28;20482;-72
2023/10/24 10:53:06;;;;;;;11.10;9.27;;;15.80;99.90;;;;;;5015176;28;20408;-72
2023/10/24 10:55:50;;;;;;;8.43;7.63;;;15.80;99.90;;;;;;4997550;28;20455;-72
2023/10/24 10:58:54;;;;;;;8.30;6.93;;;15.80;99.90;;;;;;5014899;28;20408;-72
2023/10/24 11:01:33;;;;;;;9.77;8.77;;;15.80;99.90;;;;;;4900656;29;20433;-71
2023/10/24 11:03:59;;;;;;;11.50;9.60;;;15.70;99.90;;;;;;4900999;29;20986;-72
2023/10/24 11:06:27;;;;;;;10.60;9.43;;;15.80;99.90;;;;;;4966349;28;20439;-72
2023/10/24 11:09:09;;;;;;;14.77;10.70;;;15.80;99.90;;;;;;5017230;28;20438;-72
2023/10/24 11:11:37;;;;;;;11.17;9.00;;;15.90;99.90;;;;;;5017370;28;20452;-73
2023/10/24 11:14:32;;;;;;;14.60;10.90;;;15.50;99.90;;;;;;5017406;28;20407;-72
2023/10/24 11:16:59;;;;;;;11.63;10.17;;;15.30;99.90;;;;;;4997007;28;20489;-71
2023/10/24 11:19:25;;;;;;;11.93;10.23;;;15.30;99.90;;;;;;5016754;28;20423;-71
2023/10/24 11:21:55;;;;;;;12.07;10.80;;;15.20;99.90;;;;;;5016653;28;20422;-72
2023/10/24 11:24:22;;;;;;;12.67;11.47;;;15.40;99.90;;;;;;5016772;28;20783;-71
2023/10/24 11:26:58;;;;;;;12.03;10.47;;;15.70;99.90;;;;;;5016558;28;20407;-71
2023/10/24 11:29:25;;;;;;;12.80;11.50;;;15.50;99.90;;;;;;5016408;28;20433;-72
2023/10/24 11:31:50;;;;;;;11.80;10.70;;;15.30;99.90;;;;;;5016055;28;20432;-71
2023/10/24 11:34:17;;;;;;;13.67;12.33;;;15.50;99.90;;;;;;5016642;28;20762;-72
2023/10/24 11:36:44;;;;;;;12.13;10.90;;;15.70;99.90;;;;;;5000238;28;20291;-72
2023/10/24 11:39:14;;;;;;;14.07;10.87;;;15.80;99.90;;;;;;5016437;28;20930;-72
2023/10/24 11:41:40;;;;;;;10.90;9.67;;;15.90;99.90;;;;;;5016315;28;20413;-70
2023/10/24 11:44:07;;;;;;;13.40;12.00;;;16.00;99.90;;;;;;5016137;28;20417;-71
2023/10/24 11:46:32;;;;;;;12.83;10.90;;;16.00;99.90;;;;;;5034018;28;20417;-70
2023/10/24 11:48:58;;;;;;;10.90;9.90;;;16.10;99.90;;;;;;5033915;28;20403;-71
2023/10/24 11:51:25;;;;;;;12.70;10.87;;;16.10;99.90;;;;;;5033416;28;20425;-70
2023/10/24 11:54:00;;;;;;;12.83;10.20;;;16.10;99.90;;;;;;5016158;28;20456;-75
2023/10/24 11:56:26;;;;;;;15.57;13.80;;;15.70;99.90;;;;;;5016280;28;20456;-75
2023/10/24 11:58:52;;;;;;;14.30;12.87;;;15.70;99.90;;;;;;5016114;28;20405;-75
2023/10/24 12:01:18;;;;;;;13.80;11.17;;;15.80;99.90;;;;;;5016098;28;20479;-74
2023/10/24 12:03:46;;;;;;;12.47;11.20;;;15.80;99.90;;;;;;5034067;28;20173;-74
2023/10/24 12:06:11;;;;;;;12.47;11.20;;;15.80;99.90;;;;;;5015949;28;20176;-74
2023/10/24 12:08:37;;;;;;;13.50;12.07;;;16.00;99.90;;;;;;5015750;28;20471;-74
2023/10/24 12:11:03;;;;;;;11.73;10.40;;;16.10;99.90;;;;;;5015703;28;20458;-72
2023/10/24 12:13:30;;;;;;;10.53;9.53;;;16.20;99.90;;;;;;5015664;28;20174;-73
2023/10/24 12:15:56;;;;;;;7.40;6.80;;;16.20;99.90;;;;;;5015648;28;20259;-72
2023/10/24 12:18:22;;;;;;;7.30;6.63;;;16.20;99.90;;;;;;5015707;28;20501;-73
2023/10/24 12:20:48;;;;;;;7.67;6.07;;;16.20;99.90;;;;;;5015604;28;20958;-73
2023/10/24 12:23:16;;;;;;;7.13;6.30;;;16.10;99.90;;;;;;5015536;28;20413;-73
2023/10/24 12:25:43;;;;;;;6.73;5.50;;;16.10;99.90;;;;;;5015453;28;20422;-73
2023/10/24 12:28:08;;;;;;;8.10;7.00;;;16.20;99.90;;;;;;5016112;28;20490;-73
2023/10/24 12:30:34;;;;;;;6.23;5.57;;;16.30;99.90;;;;;;4998733;28;20439;-74
2023/10/24 12:32:59;;;;;;;7.43;4.90;;;16.30;99.90;;;;;;5015434;28;20208;-74
2023/10/24 12:35:26;;;;;;;4.90;4.10;;;16.40;99.90;;;;;;5015328;28;20238;-72
2023/10/24 12:37:52;;;;;;;6.50;5.90;;;16.40;99.90;;;;;;5015369;28;20223;-72
2023/10/24 12:40:18;;;;;;;9.63;8.67;;;16.50;99.90;;;;;;5014856;28;20429;-74
2023/10/24 12:42:44;;;;;;;10.03;9.13;;;16.40;99.90;;;;;;5015193;28;20173;-74
2023/10/24 12:45:09;;;;;;;4.63;4.23;;;16.40;99.90;;;;;;5015341;28;20502;-74